Time;durP1;ratioP1;P1;durP2;ratioP2;P2;SDS_P1;SDS_P2;PMS_P1;PMS_P2;Temp;Humidity;BMP_temperature;BMP_pressure;BME280_temperature;BME280_humidity;BME280_pressure;Samples;Min_cycle;Max_cycle;Signal;HPM_P1;HPM_P2
2021/08/14 00:01:14;;;;;;;2.05;1.50;;;22.20;60.00;;;;;;4919499;29;20032;-77
2021/08/14 00:03:39;;;;;;;3.50;1.90;;;22.20;60.10;;;;;;4919462;29;20406;-77
2021/08/14 00:06:05;;;;;;;4.32;1.90;;;22.20;60.10;;;;;;4903760;29;20024;-77
2021/08/14 00:08:31;;;;;;;5.15;1.88;;;22.20;60.10;;;;;;4903763;29;20040;-78
2021/08/14 00:10:57;;;;;;;3.45;1.70;;;22.10;60.10;;;;;;4919193;29;20039;-77
2021/08/14 00:13:22;;;;;;;3.85;1.88;;;22.10;60.10;;;;;;4903784;29;20393;-77
2021/08/14 00:15:48;;;;;;;3.75;1.77;;;22.10;60.20;;;;;;4919355;29;20393;-78
2021/08/14 00:18:14;;;;;;;3.40;1.70;;;22.00;60.20;;;;;;4904216;29;20101;-77
2021/08/14 00:20:39;;;;;;;3.72;1.85;;;22.00;60.20;;;;;;4903772;29;20032;-77
2021/08/14 00:23:05;;;;;;;3.42;1.90;;;22.00;60.30;;;;;;4919501;29;20037;-78
2021/08/14 00:25:31;;;;;;;2.40;1.52;;;22.00;60.30;;;;;;4918957;29;20052;-77
2021/08/14 00:27:57;;;;;;;3.58;1.73;;;21.90;60.30;;;;;;4903526;29;20047;-78
2021/08/14 00:30:24;;;;;;;4.15;1.92;;;21.90;60.40;;;;;;4903416;29;20056;-78
2021/08/14 00:32:51;;;;;;;4.10;2.00;;;21.90;60.40;;;;;;4903575;29;20087;-78
2021/08/14 00:35:18;;;;;;;3.28;1.80;;;21.90;60.40;;;;;;4918892;29;20400;-79
2021/08/14 00:37:43;;;;;;;3.83;1.88;;;21.80;60.40;;;;;;4920320;29;20036;-77
2021/08/14 00:40:10;;;;;;;4.05;1.80;;;21.80;60.50;;;;;;4903239;29;20173;-77
2021/08/14 00:42:36;;;;;;;3.47;1.67;;;21.80;60.40;;;;;;4918698;29;20028;-78
2021/08/14 00:45:03;;;;;;;3.00;1.80;;;21.70;60.40;;;;;;4918648;29;20036;-79
2021/08/14 00:47:28;;;;;;;3.70;1.85;;;21.70;60.50;;;;;;4918685;29;20040;-77
2021/08/14 00:49:54;;;;;;;4.35;1.88;;;21.70;60.60;;;;;;4918921;29;20489;-78
2021/08/14 00:52:23;;;;;;;3.88;1.80;;;21.70;60.60;;;;;;4919568;29;20036;-78
2021/08/14 00:54:49;;;;;;;3.22;1.80;;;21.60;60.60;;;;;;4903127;29;20024;-78
2021/08/14 00:57:15;;;;;;;3.97;1.90;;;21.60;60.70;;;;;;4919505;29;20040;-77
2021/08/14 00:59:45;;;;;;;2.95;1.70;;;21.60;60.80;;;;;;4933602;29;20039;-79
2021/08/14 01:02:10;;;;;;;3.90;1.75;;;21.60;60.80;;;;;;4918284;29;20393;-77
2021/08/14 01:04:36;;;;;;;3.05;1.73;;;21.50;60.80;;;;;;4918772;29;20036;-77
2021/08/14 01:07:03;;;;;;;3.47;1.90;;;21.50;60.80;;;;;;4917789;29;20119;-78
2021/08/14 01:09:29;;;;;;;5.30;1.88;;;21.50;60.90;;;;;;4902969;29;20043;-77
2021/08/14 01:11:57;;;;;;;3.20;1.60;;;21.40;60.90;;;;;;4902566;29;20385;-78
2021/08/14 01:14:23;;;;;;;4.30;2.00;;;21.40;60.90;;;;;;4916132;29;20091;-77
2021/08/14 01:16:49;;;;;;;2.88;1.70;;;21.40;61.00;;;;;;4918351;29;20040;-78
2021/08/14 01:19:17;;;;;;;3.60;1.80;;;21.40;61.00;;;;;;4917941;29;20031;-77
2021/08/14 01:21:51;;;;;;;3.92;1.80;;;21.30;61.00;;;;;;4917891;29;20028;-77
2021/08/14 01:24:19;;;;;;;3.22;1.70;;;21.30;61.10;;;;;;4901797;29;20039;-77
2021/08/14 01:26:45;;;;;;;2.60;1.55;;;21.30;61.10;;;;;;4903061;29;20024;-77
2021/08/14 01:29:11;;;;;;;2.72;1.60;;;21.30;61.10;;;;;;4917972;29;20523;-78
2021/08/14 01:31:38;;;;;;;3.28;1.58;;;21.30;61.20;;;;;;4917895;29;20032;-77
2021/08/14 01:34:04;;;;;;;2.92;1.60;;;21.20;61.20;;;;;;4917881;29;20063;-78
2021/08/14 01:36:30;;;;;;;3.97;1.90;;;21.30;61.20;;;;;;4902176;29;20024;-77
2021/08/14 01:39:01;;;;;;;2.97;1.67;;;21.20;61.30;;;;;;4917953;29;20374;-78
2021/08/14 01:41:28;;;;;;;2.63;1.70;;;21.20;61.30;;;;;;4933873;29;20043;-77
2021/08/14 01:44:05;;;;;;;3.85;2.03;;;21.20;61.30;;;;;;4917770;29;20477;-78
2021/08/14 01:46:34;;;;;;;3.92;1.90;;;21.20;61.40;;;;;;4918759;29;20032;-77
2021/08/14 01:49:01;;;;;;;3.63;1.73;;;21.10;61.40;;;;;;4918744;29;20461;-78
2021/08/14 01:51:28;;;;;;;3.63;1.80;;;21.10;62.10;;;;;;4933179;29;20040;-77
2021/08/14 01:53:56;;;;;;;2.30;1.55;;;21.10;61.50;;;;;;4902059;29;20514;-78
2021/08/14 01:56:23;;;;;;;4.15;1.92;;;21.10;61.50;;;;;;4917555;29;20032;-77
2021/08/14 01:58:50;;;;;;;4.10;1.80;;;21.10;61.60;;;;;;4901939;29;20095;-77
2021/08/14 02:01:16;;;;;;;5.90;1.88;;;21.10;61.60;;;;;;4901449;29;20499;-77
2021/08/14 02:03:46;;;;;;;4.00;1.90;;;21.00;61.60;;;;;;4917358;29;20397;-77
2021/08/14 02:06:13;;;;;;;3.83;1.85;;;21.00;61.60;;;;;;4917273;29;20483;-78
2021/08/14 02:08:39;;;;;;;2.95;1.60;;;21.00;61.70;;;;;;4901577;29;20103;-77
2021/08/14 02:11:15;;;;;;;3.05;1.73;;;21.00;61.70;;;;;;4917276;29;20070;-79
2021/08/14 02:13:43;;;;;;;3.10;1.65;;;21.00;61.80;;;;;;4919317;29;20088;-78
2021/08/14 02:16:10;;;;;;;3.58;1.85;;;21.00;61.80;;;;;;4918924;29;20020;-77
2021/08/14 02:18:35;;;;;;;4.65;2.28;;;20.90;61.80;;;;;;4901788;29;20107;-77
2021/08/14 02:21:02;;;;;;;5.22;2.45;;;20.90;61.90;;;;;;4901315;29;20484;-77
2021/08/14 02:23:28;;;;;;;3.65;1.75;;;20.90;61.90;;;;;;4917164;29;20481;-78
2021/08/14 02:25:54;;;;;;;3.03;1.67;;;20.90;61.90;;;;;;4901376;29;20080;-79
2021/08/14 02:28:20;;;;;;;3.30;2.03;;;20.90;61.90;;;;;;4901042;29;20512;-78
2021/08/14 02:30:45;;;;;;;4.15;2.08;;;20.80;61.90;;;;;;4901179;29;20028;-77
2021/08/14 02:33:11;;;;;;;3.88;2.00;;;20.80;61.90;;;;;;4917240;29;20585;-77
2021/08/14 02:35:37;;;;;;;3.95;1.83;;;20.80;62.00;;;;;;4918018;29;20103;-77
2021/08/14 02:38:03;;;;;;;3.53;1.95;;;20.80;62.10;;;;;;4901162;29;20404;-77
2021/08/14 02:40:29;;;;;;;5.68;2.50;;;20.80;62.10;;;;;;4916609;29;20470;-78
2021/08/14 02:42:54;;;;;;;3.28;1.75;;;20.70;62.10;;;;;;4916536;29;20525;-78
2021/08/14 02:45:20;;;;;;;4.03;2.03;;;20.70;62.10;;;;;;4900845;29;20032;-78
2021/08/14 02:47:46;;;;;;;2.42;1.67;;;20.70;62.10;;;;;;4900743;29;20095;-78
2021/08/14 02:50:11;;;;;;;3.08;1.85;;;20.70;62.20;;;;;;4916824;29;20501;-80
2021/08/14 02:52:38;;;;;;;3.78;1.98;;;20.70;62.20;;;;;;4901040;29;20099;-78
2021/08/14 02:55:04;;;;;;;3.38;1.95;;;20.70;62.20;;;;;;4900972;29;20174;-78
2021/08/14 02:57:30;;;;;;;3.28;1.83;;;20.70;62.30;;;;;;4917978;29;20032;-78
2021/08/14 02:59:56;;;;;;;3.15;2.00;;;20.60;62.30;;;;;;4916683;29;20072;-77
2021/08/14 03:02:21;;;;;;;4.13;1.88;;;20.60;62.30;;;;;;4900756;29;20374;-78
2021/08/14 03:04:47;;;;;;;3.72;2.08;;;20.60;62.30;;;;;;4917244;29;20354;-78
2021/08/14 03:07:13;;;;;;;3.60;2.20;;;20.60;62.30;;;;;;4901107;29;20050;-77
2021/08/14 03:09:38;;;;;;;3.55;1.98;;;20.60;62.40;;;;;;4916473;29;20040;-78
2021/08/14 03:12:04;;;;;;;3.45;2.10;;;20.60;62.40;;;;;;4900956;29;20058;-78
2021/08/14 03:14:30;;;;;;;3.55;1.90;;;20.50;62.40;;;;;;4901430;29;20044;-77
2021/08/14 03:16:56;;;;;;;3.15;2.00;;;20.50;62.40;;;;;;4900708;29;20495;-77
2021/08/14 03:19:21;;;;;;;3.22;1.80;;;20.50;62.50;;;;;;4916857;29;20491;-78
2021/08/14 03:21:47;;;;;;;2.90;1.75;;;20.50;62.50;;;;;;4901046;29;20040;-77
2021/08/14 03:24:13;;;;;;;4.50;2.60;;;20.50;62.50;;;;;;4915252;29;20034;-77
2021/08/14 03:26:38;;;;;;;3.97;2.15;;;20.50;62.60;;;;;;4900440;29;20036;-77
2021/08/14 03:29:04;;;;;;;4.68;2.28;;;20.40;62.60;;;;;;4901051;29;20147;-78
2021/08/14 03:31:33;;;;;;;3.05;1.83;;;20.40;62.50;;;;;;4901148;29;20038;-77
2021/08/14 03:33:59;;;;;;;3.45;2.05;;;20.40;62.60;;;;;;4900406;29;20043;-77
2021/08/14 03:36:24;;;;;;;5.13;2.10;;;20.40;62.60;;;;;;4917097;29;20036;-77
2021/08/14 03:38:50;;;;;;;4.32;2.38;;;20.30;62.60;;;;;;4915923;29;20036;-78
2021/08/14 03:41:16;;;;;;;3.70;2.08;;;20.40;62.60;;;;;;4900497;29;20075;-77
2021/08/14 03:43:41;;;;;;;3.92;2.15;;;20.40;62.70;;;;;;4916538;29;20068;-78
2021/08/14 03:46:07;;;;;;;3.83;1.92;;;20.30;62.70;;;;;;4900330;29;20064;-77
2021/08/14 03:48:33;;;;;;;4.10;2.10;;;20.30;62.70;;;;;;4916497;29;20058;-77
2021/08/14 03:50:58;;;;;;;3.90;2.20;;;20.30;62.70;;;;;;4901008;29;20470;-78
2021/08/14 03:53:24;;;;;;;3.08;2.13;;;20.30;62.70;;;;;;4900151;29;20067;-77
2021/08/14 03:55:50;;;;;;;3.92;2.03;;;20.30;62.80;;;;;;4900219;29;20032;-77
2021/08/14 03:58:16;;;;;;;3.13;2.08;;;20.30;63.00;;;;;;4900157;29;20036;-78
2021/08/14 04:00:41;;;;;;;3.95;2.20;;;20.20;62.80;;;;;;4900367;29;20032;-78
2021/08/14 04:03:07;;;;;;;3.22;2.03;;;20.20;62.80;;;;;;4916017;29;20029;-77
2021/08/14 04:05:33;;;;;;;3.95;2.15;;;20.20;62.90;;;;;;4916378;29;20036;-77
2021/08/14 04:07:59;;;;;;;4.57;2.15;;;20.20;62.90;;;;;;4900215;29;20043;-78
2021/08/14 04:10:25;;;;;;;3.70;2.13;;;20.20;62.90;;;;;;4900773;29;20048;-79
2021/08/14 04:12:50;;;;;;;4.03;2.20;;;20.10;62.90;;;;;;4916552;29;20127;-77
2021/08/14 04:15:17;;;;;;;5.70;2.58;;;20.10;63.00;;;;;;4916698;29;20075;-77
2021/08/14 04:17:43;;;;;;;4.32;2.25;;;20.10;63.00;;;;;;4899999;29;20047;-78
2021/08/14 04:20:09;;;;;;;4.65;2.33;;;20.10;63.00;;;;;;4931051;29;20036;-77
2021/08/14 04:22:35;;;;;;;3.53;2.20;;;20.10;63.00;;;;;;4915323;29;20036;-76
2021/08/14 04:25:01;;;;;;;3.95;2.40;;;20.00;63.00;;;;;;4915523;29;20103;-78
2021/08/14 04:27:27;;;;;;;4.63;2.50;;;20.00;63.10;;;;;;4916822;29;20039;-78
2021/08/14 04:29:53;;;;;;;3.88;1.98;;;20.00;63.00;;;;;;4915662;29;20041;-77
2021/08/14 04:32:19;;;;;;;3.95;2.40;;;20.00;63.10;;;;;;4915104;29;20024;-78
2021/08/14 04:34:44;;;;;;;5.07;2.50;;;20.00;63.10;;;;;;4917350;29;20044;-77
2021/08/14 04:37:13;;;;;;;4.55;2.50;;;20.00;63.40;;;;;;4903400;29;20043;-78
2021/08/14 04:39:39;;;;;;;5.10;2.70;;;20.00;63.30;;;;;;4918654;29;20044;-77
2021/08/14 04:42:05;;;;;;;3.78;2.35;;;20.00;63.20;;;;;;4903088;29;20039;-78
2021/08/14 04:44:31;;;;;;;4.70;2.60;;;20.00;63.20;;;;;;4903099;29;20541;-77
2021/08/14 04:46:59;;;;;;;4.38;2.33;;;20.00;63.30;;;;;;4919665;29;20478;-78
2021/08/14 04:49:26;;;;;;;3.28;2.13;;;19.90;63.30;;;;;;4903111;29;20494;-78
2021/08/14 04:51:52;;;;;;;4.97;2.47;;;19.90;63.30;;;;;;4918487;29;20032;-77
2021/08/14 04:54:17;;;;;;;4.03;2.45;;;19.90;63.30;;;;;;4918736;29;20131;-77
2021/08/14 04:56:43;;;;;;;4.88;2.47;;;19.90;63.30;;;;;;4918882;29;20532;-77
2021/08/14 04:59:09;;;;;;;4.88;2.55;;;19.90;63.40;;;;;;4918492;29;20036;-78
2021/08/14 05:01:34;;;;;;;4.47;2.42;;;19.90;63.40;;;;;;4902846;29;20060;-77
2021/08/14 05:04:00;;;;;;;3.83;2.35;;;19.80;64.00;;;;;;4919048;29;20042;-77
2021/08/14 05:06:26;;;;;;;4.32;2.40;;;19.80;63.40;;;;;;4903063;29;20040;-78
2021/08/14 05:08:51;;;;;;;4.53;2.20;;;19.80;63.40;;;;;;4902766;29;20024;-77
2021/08/14 05:11:17;;;;;;;4.32;2.25;;;19.80;63.50;;;;;;4903255;29;20469;-78
2021/08/14 05:13:43;;;;;;;3.95;2.40;;;19.80;63.50;;;;;;4902507;29;20127;-77
2021/08/14 05:16:09;;;;;;;4.75;2.70;;;19.80;63.60;;;;;;4918030;29;20477;-78
2021/08/14 05:18:34;;;;;;;3.63;2.35;;;19.80;63.60;;;;;;4903098;29;20039;-78
2021/08/14 05:21:00;;;;;;;4.45;2.50;;;19.80;63.70;;;;;;4903090;29;20035;-78
2021/08/14 05:23:26;;;;;;;4.22;2.20;;;19.80;64.30;;;;;;4902640;29;20028;-78
2021/08/14 05:25:51;;;;;;;7.30;2.53;;;19.70;63.60;;;;;;4919662;29;20060;-77
2021/08/14 05:28:17;;;;;;;4.13;2.42;;;19.70;63.60;;;;;;4902828;29;20032;-78
2021/08/14 05:30:43;;;;;;;3.80;2.40;;;19.70;63.70;;;;;;4917754;29;20598;-78
2021/08/14 05:33:09;;;;;;;4.57;2.72;;;19.70;63.70;;;;;;4917912;29;20032;-77
2021/08/14 05:35:34;;;;;;;4.15;2.33;;;19.70;63.70;;;;;;4917850;29;20392;-78
2021/08/14 05:38:00;;;;;;;3.55;2.40;;;19.70;63.70;;;;;;4902017;29;20489;-77
2021/08/14 05:40:26;;;;;;;4.25;2.47;;;19.70;63.70;;;;;;4918052;29;20093;-78
2021/08/14 05:42:52;;;;;;;4.75;2.53;;;19.70;63.80;;;;;;4918059;29;20036;-77
2021/08/14 05:45:18;;;;;;;4.43;2.53;;;19.70;64.40;;;;;;4917307;29;20040;-77
2021/08/14 05:47:43;;;;;;;4.15;2.67;;;19.70;63.80;;;;;;4917356;29;20112;-77
2021/08/14 05:50:10;;;;;;;4.55;2.35;;;19.60;63.80;;;;;;4901888;29;20067;-77
2021/08/14 05:52:36;;;;;;;4.22;2.75;;;19.60;63.90;;;;;;4901428;29;20032;-78
2021/08/14 05:55:02;;;;;;;4.95;3.03;;;19.60;63.80;;;;;;4917407;29;20040;-77
2021/08/14 05:57:27;;;;;;;4.82;2.72;;;19.60;63.80;;;;;;4918090;29;20043;-77
2021/08/14 05:59:53;;;;;;;4.07;2.47;;;19.60;63.90;;;;;;4901733;29;20472;-78
2021/08/14 06:02:19;;;;;;;5.60;2.50;;;19.60;63.90;;;;;;4917777;29;20517;-77
2021/08/14 06:04:45;;;;;;;3.95;2.38;;;19.60;63.90;;;;;;4917987;29;20465;-78
2021/08/14 06:07:10;;;;;;;4.30;2.40;;;19.60;63.90;;;;;;4901637;29;20028;-78
2021/08/14 06:09:36;;;;;;;5.10;2.80;;;19.60;63.90;;;;;;4901499;29;20048;-79
2021/08/14 06:12:02;;;;;;;3.75;2.47;;;19.60;64.00;;;;;;4901899;29;20174;-79
2021/08/14 06:14:28;;;;;;;3.10;2.25;;;19.60;64.00;;;;;;4918711;29;20036;-78
2021/08/14 06:16:53;;;;;;;4.00;2.40;;;19.60;64.10;;;;;;4918030;29;20028;-78
2021/08/14 06:19:19;;;;;;;4.93;2.58;;;19.60;64.00;;;;;;4901382;29;20032;-78
2021/08/14 06:21:45;;;;;;;4.75;2.83;;;19.60;64.00;;;;;;4901233;29;20060;-77
2021/08/14 06:24:11;;;;;;;3.92;2.25;;;19.60;64.00;;;;;;4901189;29;20095;-78
2021/08/14 06:26:36;;;;;;;3.95;2.67;;;19.60;64.00;;;;;;4918454;29;20063;-78
2021/08/14 06:29:03;;;;;;;4.22;2.70;;;19.60;64.00;;;;;;4917595;29;20039;-78
2021/08/14 06:31:28;;;;;;;4.65;2.63;;;19.60;64.10;;;;;;4901148;29;20028;-78
2021/08/14 06:33:54;;;;;;;4.40;2.45;;;19.60;64.10;;;;;;4900983;29;20545;-78
2021/08/14 06:36:20;;;;;;;3.67;2.50;;;19.60;64.10;;;;;;4916685;29;20032;-78
2021/08/14 06:38:45;;;;;;;5.45;3.03;;;19.60;64.10;;;;;;4917350;29;20036;-77
2021/08/14 06:41:11;;;;;;;3.35;2.30;;;19.60;64.10;;;;;;4917079;29;20111;-78
2021/08/14 06:43:37;;;;;;;4.10;2.50;;;19.60;64.10;;;;;;4900951;29;20032;-78
2021/08/14 06:46:03;;;;;;;5.00;2.85;;;19.60;64.10;;;;;;4918256;29;20035;-77
2021/08/14 06:48:33;;;;;;;4.70;2.65;;;19.60;64.10;;;;;;4900813;29;20434;-78
2021/08/14 06:50:59;;;;;;;3.70;2.47;;;19.60;64.20;;;;;;4917215;29;20042;-78
2021/08/14 06:53:24;;;;;;;4.13;2.35;;;19.60;64.20;;;;;;4917160;29;20036;-77
2021/08/14 06:55:50;;;;;;;4.30;2.78;;;19.60;64.10;;;;;;4900556;29;20036;-78
2021/08/14 06:58:16;;;;;;;4.68;2.70;;;19.70;64.20;;;;;;4900147;29;20457;-77
2021/08/14 07:00:41;;;;;;;4.80;2.85;;;19.60;64.20;;;;;;4917658;29;20029;-78
2021/08/14 07:03:08;;;;;;;3.00;2.20;;;19.70;64.30;;;;;;4916452;29;20036;-77
2021/08/14 07:05:37;;;;;;;5.00;2.88;;;19.70;64.40;;;;;;4917302;29;20040;-77
2021/08/14 07:08:03;;;;;;;4.78;2.40;;;19.70;64.30;;;;;;4916489;29;20028;-78
2021/08/14 07:10:29;;;;;;;3.42;2.20;;;19.70;64.30;;;;;;4900427;29;20500;-77
2021/08/14 07:12:55;;;;;;;4.25;2.47;;;19.70;64.30;;;;;;4916504;29;20123;-78
2021/08/14 07:15:20;;;;;;;3.72;2.40;;;19.70;64.40;;;;;;4916928;29;20450;-78
2021/08/14 07:17:46;;;;;;;5.15;2.78;;;19.70;64.30;;;;;;4916311;29;20158;-77
2021/08/14 07:20:12;;;;;;;3.47;2.30;;;19.70;64.30;;;;;;4901423;29;20036;-77
2021/08/14 07:22:38;;;;;;;3.90;2.25;;;19.80;64.40;;;;;;4900455;29;20454;-77
2021/08/14 07:25:04;;;;;;;3.78;2.47;;;19.80;64.40;;;;;;4916428;29;20055;-77
2021/08/14 07:27:30;;;;;;;4.72;2.47;;;19.80;64.40;;;;;;4885677;29;20040;-77
2021/08/14 07:29:56;;;;;;;4.53;2.63;;;19.80;64.40;;;;;;4916095;29;20481;-78
2021/08/14 07:32:21;;;;;;;4.03;2.45;;;19.80;64.40;;;;;;4901197;29;20040;-78
2021/08/14 07:34:47;;;;;;;4.55;2.70;;;19.80;64.30;;;;;;4884663;29;20055;-77
2021/08/14 07:37:13;;;;;;;3.67;2.22;;;19.80;64.30;;;;;;4931638;29;20043;-78
2021/08/14 07:39:38;;;;;;;3.88;2.35;;;19.80;64.40;;;;;;4916620;29;20031;-78
2021/08/14 07:42:04;;;;;;;3.13;2.08;;;19.80;64.30;;;;;;4915911;29;20052;-77
2021/08/14 07:44:30;;;;;;;4.70;2.40;;;19.80;64.30;;;;;;4900642;29;20052;-78
2021/08/14 07:46:56;;;;;;;4.35;2.63;;;19.80;64.40;;;;;;4916315;29;20032;-78
2021/08/14 07:49:22;;;;;;;3.80;2.28;;;19.90;64.50;;;;;;4900194;29;20040;-78
2021/08/14 07:51:48;;;;;;;3.70;2.28;;;19.90;64.40;;;;;;4900552;29;20071;-79
2021/08/14 07:54:14;;;;;;;4.45;2.38;;;19.90;64.40;;;;;;4900317;29;20052;-77
2021/08/14 07:56:39;;;;;;;4.05;2.40;;;19.90;64.40;;;;;;4900073;29;20430;-78
2021/08/14 07:59:05;;;;;;;3.58;2.22;;;19.90;64.40;;;;;;4899870;29;20489;-77
2021/08/14 08:01:31;;;;;;;4.82;2.25;;;19.90;64.40;;;;;;4915892;29;20039;-77
2021/08/14 08:03:56;;;;;;;3.97;2.38;;;20.00;64.50;;;;;;4916106;29;20307;-78
2021/08/14 08:06:22;;;;;;;4.20;2.38;;;20.00;64.40;;;;;;4900410;29;20434;-78
2021/08/14 08:08:48;;;;;;;3.55;2.20;;;20.00;64.40;;;;;;4915587;29;20088;-77
2021/08/14 08:11:13;;;;;;;3.22;1.98;;;20.00;64.40;;;;;;4904474;29;20048;-77
2021/08/14 08:13:39;;;;;;;4.20;2.47;;;20.10;64.40;;;;;;4903793;29;20395;-77
2021/08/14 08:16:05;;;;;;;3.80;2.40;;;20.10;64.30;;;;;;4903532;29;20036;-78
2021/08/14 08:18:31;;;;;;;2.80;2.05;;;20.10;64.30;;;;;;4904101;29;20036;-77
2021/08/14 08:20:56;;;;;;;4.60;2.50;;;20.20;64.30;;;;;;4920644;29;20469;-78
2021/08/14 08:23:22;;;;;;;3.72;2.45;;;20.20;64.30;;;;;;4903233;29;20039;-77
2021/08/14 08:25:48;;;;;;;3.30;2.05;;;20.20;64.20;;;;;;4918638;29;20520;-78
2021/08/14 08:28:20;;;;;;;5.30;2.30;;;20.30;64.20;;;;;;4920897;29;20036;-78
2021/08/14 08:30:46;;;;;;;3.55;2.28;;;20.30;64.20;;;;;;4904164;29;20096;-77
2021/08/14 08:33:11;;;;;;;4.47;2.53;;;20.40;64.00;;;;;;4903603;29;20028;-77
2021/08/14 08:35:37;;;;;;;4.40;2.40;;;20.40;64.00;;;;;;4903530;29;20381;-78
2021/08/14 08:38:03;;;;;;;5.45;2.30;;;20.50;63.90;;;;;;4903232;29;20495;-78
2021/08/14 08:40:32;;;;;;;3.22;2.10;;;20.60;63.80;;;;;;4903230;29;20038;-78
2021/08/14 08:42:58;;;;;;;4.25;2.28;;;20.60;63.80;;;;;;4934682;29;20056;-78
2021/08/14 08:45:24;;;;;;;4.15;2.28;;;20.70;63.70;;;;;;4903208;29;20036;-78
2021/08/14 08:47:50;;;;;;;3.03;1.95;;;20.80;63.60;;;;;;4902807;29;20090;-78
2021/08/14 08:50:16;;;;;;;5.32;2.63;;;20.80;63.50;;;;;;4903671;29;20461;-78
2021/08/14 08:52:43;;;;;;;3.65;2.30;;;20.80;63.50;;;;;;4902849;29;20039;-77
2021/08/14 08:55:11;;;;;;;4.07;2.05;;;20.90;63.30;;;;;;4918717;29;20028;-78
2021/08/14 08:57:37;;;;;;;4.20;2.00;;;21.00;63.30;;;;;;4918163;29;20059;-78
2021/08/14 09:00:04;;;;;;;5.22;2.63;;;21.10;63.20;;;;;;4902913;29;20489;-78
2021/08/14 09:02:36;;;;;;;3.17;2.03;;;21.10;63.10;;;;;;4918762;29;20024;-77
2021/08/14 09:05:09;;;;;;;4.53;2.17;;;21.20;63.10;;;;;;4918487;29;20131;-78
2021/08/14 09:07:35;;;;;;;4.72;2.22;;;21.30;63.00;;;;;;4902640;29;20488;-78
2021/08/14 09:10:03;;;;;;;3.97;2.33;;;21.40;63.00;;;;;;4919115;29;20119;-78
2021/08/14 09:12:41;;;;;;;4.30;2.10;;;21.40;62.90;;;;;;4918405;29;20020;-77
2021/08/14 09:15:14;;;;;;;4.15;2.28;;;21.50;62.90;;;;;;4934301;29;20088;-78
2021/08/14 09:17:40;;;;;;;3.75;2.40;;;21.60;62.80;;;;;;4902232;29;20040;-77
2021/08/14 09:20:13;;;;;;;3.63;2.13;;;21.70;62.70;;;;;;4903215;29;20080;-77
2021/08/14 09:22:43;;;;;;;3.78;2.08;;;21.70;62.70;;;;;;4917551;29;20024;-78
2021/08/14 09:25:16;;;;;;;4.20;2.45;;;21.80;62.60;;;;;;4918266;29;20577;-77
2021/08/14 09:27:57;;;;;;;4.53;2.38;;;21.90;62.60;;;;;;4902399;29;20039;-78
2021/08/14 09:30:43;;;;;;;4.45;2.58;;;22.00;62.70;;;;;;4918069;29;20111;-78
2021/08/14 09:33:10;;;;;;;3.88;2.40;;;22.10;62.60;;;;;;4918914;29;20058;-78
2021/08/14 09:35:37;;;;;;;4.32;2.70;;;22.20;62.40;;;;;;4902012;29;20036;-78
2021/08/14 09:38:13;;;;;;;4.75;2.90;;;22.30;62.40;;;;;;4933708;29;20043;-77
2021/08/14 09:40:41;;;;;;;5.07;2.92;;;22.30;62.50;;;;;;4933751;29;20520;-78
2021/08/14 09:43:07;;;;;;;5.40;2.83;;;22.40;62.30;;;;;;4917839;29;20032;-78
2021/08/14 09:45:34;;;;;;;3.75;2.65;;;22.50;62.20;;;;;;4902520;29;20038;-78
2021/08/14 09:48:15;;;;;;;5.22;2.92;;;22.60;62.20;;;;;;4902672;29;20378;-77
2021/08/14 09:50:41;;;;;;;4.45;2.95;;;22.60;62.20;;;;;;4902629;29;20489;-78
2021/08/14 09:53:21;;;;;;;5.97;3.10;;;22.70;62.10;;;;;;4901676;29;20032;-78
2021/08/14 09:55:50;;;;;;;5.10;2.80;;;22.80;62.10;;;;;;4918552;29;20103;-78
2021/08/14 09:58:20;;;;;;;4.38;2.95;;;22.90;62.00;;;;;;4918780;29;20040;-77
2021/08/14 10:00:49;;;;;;;4.43;2.90;;;23.00;62.00;;;;;;4903189;29;20032;-76
2021/08/14 10:03:16;;;;;;;5.72;2.83;;;23.10;62.00;;;;;;4901494;29;20123;-76
2021/08/14 10:05:43;;;;;;;5.35;3.33;;;23.10;61.90;;;;;;4917575;29;20072;-76
2021/08/14 10:08:09;;;;;;;5.47;3.38;;;23.20;61.90;;;;;;4917052;29;20028;-77
2021/08/14 10:10:37;;;;;;;6.35;3.45;;;23.30;61.80;;;;;;4901520;29;20040;-76
2021/08/14 10:13:03;;;;;;;5.38;3.17;;;23.30;61.70;;;;;;4917407;29;20102;-77
2021/08/14 10:15:30;;;;;;;6.28;3.20;;;23.40;61.70;;;;;;4917508;29;20521;-77
2021/08/14 10:17:56;;;;;;;6.05;3.35;;;23.50;61.70;;;;;;4901665;29;20037;-78
2021/08/14 10:20:23;;;;;;;6.78;3.65;;;23.60;61.60;;;;;;4932896;29;20024;-77
2021/08/14 10:23:04;;;;;;;5.97;3.70;;;23.60;61.50;;;;;;4917186;29;20397;-78
2021/08/14 10:25:32;;;;;;;6.65;3.53;;;23.70;61.60;;;;;;4916559;29;20574;-75
2021/08/14 10:28:01;;;;;;;6.03;3.83;;;23.80;61.40;;;;;;4918046;29;20480;-77
2021/08/14 10:30:46;;;;;;;7.47;3.53;;;23.90;61.40;;;;;;4917154;29;20115;-75
2021/08/14 10:33:36;;;;;;;6.85;3.58;;;24.00;61.40;;;;;;4918277;29;20035;-75
2021/08/14 10:36:16;;;;;;;6.45;3.92;;;24.00;61.40;;;;;;4915676;29;20048;-75
2021/08/14 10:38:47;;;;;;;6.45;3.88;;;24.20;61.30;;;;;;4916839;29;20040;-76
2021/08/14 10:41:13;;;;;;;7.20;3.80;;;24.20;61.10;;;;;;4917597;29;20032;-75
2021/08/14 10:43:54;;;;;;;5.68;3.53;;;24.30;61.10;;;;;;4916764;29;20032;-75
2021/08/14 10:46:37;;;;;;;5.53;3.30;;;24.40;61.20;;;;;;4918551;29;20038;-75
2021/08/14 10:49:03;;;;;;;6.40;3.67;;;24.40;61.20;;;;;;4917772;29;20048;-75
2021/08/14 10:51:47;;;;;;;7.35;4.30;;;24.50;61.00;;;;;;4917467;29;20055;-75
2021/08/14 10:54:28;;;;;;;5.95;3.47;;;24.60;61.10;;;;;;4916705;29;20119;-76
2021/08/14 10:56:56;;;;;;;5.90;3.35;;;24.60;61.00;;;;;;4900746;29;20123;-75
2021/08/14 10:59:39;;;;;;;6.05;3.35;;;24.70;60.80;;;;;;4917694;29;20028;-75
2021/08/14 11:02:12;;;;;;;6.05;3.60;;;24.80;61.00;;;;;;4917423;29;20040;-76
2021/08/14 11:04:38;;;;;;;6.28;3.70;;;24.80;60.80;;;;;;4916059;29;20032;-75
2021/08/14 11:07:31;;;;;;;5.90;3.55;;;24.90;60.80;;;;;;4916443;29;20034;-75
2021/08/14 11:09:57;;;;;;;6.22;3.88;;;24.90;60.90;;;;;;4915148;29;20059;-75
2021/08/14 11:12:33;;;;;;;6.78;3.60;;;25.00;60.70;;;;;;4916453;29;20036;-76
2021/08/14 11:15:20;;;;;;;5.47;3.45;;;25.10;60.90;;;;;;4900946;29;20040;-75
2021/08/14 11:17:58;;;;;;;7.00;3.85;;;25.10;60.90;;;;;;4916111;29;20512;-75
2021/08/14 11:20:23;;;;;;;6.82;3.80;;;25.10;60.80;;;;;;4916359;29;20036;-76
2021/08/14 11:22:53;;;;;;;5.38;3.58;;;25.10;60.70;;;;;;4915987;29;20488;-75
2021/08/14 11:25:46;;;;;;;5.90;3.75;;;25.20;60.80;;;;;;4915551;29;20044;-75
2021/08/14 11:28:18;;;;;;;5.85;3.58;;;25.30;61.00;;;;;;4914587;29;20052;-75
2021/08/14 11:30:53;;;;;;;6.40;3.88;;;25.30;60.80;;;;;;4917760;29;20453;-76
2021/08/14 11:33:23;;;;;;;6.78;3.95;;;25.30;60.90;;;;;;4915743;29;20067;-76
2021/08/14 11:35:59;;;;;;;7.18;4.28;;;25.30;60.90;;;;;;4900035;29;20055;-78
2021/08/14 11:38:35;;;;;;;5.75;3.63;;;25.30;60.90;;;;;;4901846;29;20066;-76
2021/08/14 11:41:02;;;;;;;6.28;3.67;;;25.40;61.10;;;;;;4916832;29;20036;-77
2021/08/14 11:43:38;;;;;;;6.38;3.40;;;25.40;61.00;;;;;;4915804;29;20466;-76
2021/08/14 11:46:06;;;;;;;6.47;3.65;;;25.40;61.10;;;;;;4920952;29;20079;-78
2021/08/14 11:48:43;;;;;;;6.10;3.92;;;25.50;61.10;;;;;;4919681;29;20382;-77
2021/08/14 11:51:20;;;;;;;5.13;3.55;;;25.50;61.20;;;;;;4936245;29;20036;-76
2021/08/14 11:53:47;;;;;;;5.93;3.38;;;25.50;61.20;;;;;;4903868;29;20040;-76
2021/08/14 11:56:15;;;;;;;6.75;3.72;;;25.60;61.20;;;;;;4919227;29;20458;-76
2021/08/14 11:58:41;;;;;;;6.00;3.90;;;25.50;61.10;;;;;;4920391;29;20036;-77
2021/08/14 12:01:10;;;;;;;6.82;3.83;;;25.50;61.10;;;;;;4919271;29;20465;-77
2021/08/14 12:03:36;;;;;;;5.88;3.75;;;25.60;61.20;;;;;;4919892;29;20024;-76
2021/08/14 12:06:20;;;;;;;5.72;3.75;;;25.60;61.20;;;;;;4903579;29;20039;-76
2021/08/14 12:08:47;;;;;;;6.13;3.73;;;25.60;61.40;;;;;;4903792;29;20148;-76
2021/08/14 12:11:26;;;;;;;5.93;3.75;;;25.60;61.20;;;;;;4903828;29;20059;-76
2021/08/14 12:14:22;;;;;;;6.35;3.63;;;25.60;61.30;;;;;;4920531;29;20037;-77
2021/08/14 12:16:58;;;;;;;6.28;3.45;;;25.60;61.50;;;;;;4903326;29;20037;-76
2021/08/14 12:19:25;;;;;;;5.85;3.25;;;25.60;61.40;;;;;;4920022;29;20385;-76
2021/08/14 12:22:04;;;;;;;6.43;3.67;;;25.60;61.40;;;;;;4919527;29;20115;-77
2021/08/14 12:24:30;;;;;;;6.15;3.80;;;25.60;61.60;;;;;;4919999;29;20115;-77
2021/08/14 12:26:56;;;;;;;6.07;4.13;;;25.60;61.60;;;;;;4888482;29;20064;-75
2021/08/14 12:29:23;;;;;;;5.15;3.47;;;25.60;61.60;;;;;;4919057;29;20037;-78
2021/08/14 12:31:52;;;;;;;5.88;3.75;;;25.60;61.70;;;;;;4920084;29;20043;-76
2021/08/14 12:34:32;;;;;;;6.07;3.75;;;25.60;61.70;;;;;;4920470;29;20036;-76
2021/08/14 12:37:02;;;;;;;5.43;3.85;;;25.60;61.70;;;;;;4920180;29;20064;-77
2021/08/14 12:39:46;;;;;;;7.50;4.45;;;25.60;61.70;;;;;;4903012;29;20039;-76
2021/08/14 12:42:17;;;;;;;5.83;3.57;;;25.60;61.80;;;;;;4919687;29;20028;-77
2021/08/14 12:44:43;;;;;;;5.85;3.67;;;25.60;61.70;;;;;;4903014;29;20035;-76
2021/08/14 12:47:09;;;;;;;6.18;3.97;;;25.60;61.70;;;;;;4902957;29;20377;-76
2021/08/14 12:49:34;;;;;;;5.72;3.72;;;25.60;61.80;;;;;;4918595;29;20047;-76
2021/08/14 12:52:05;;;;;;;6.95;4.05;;;25.60;61.90;;;;;;4902940;29;20028;-76